createdAt,value
2023-04-09T00:00:20.886Z,54.58
2023-04-09T00:02:47.681Z,49.08
2023-04-09T00:05:14.595Z,49.58
2023-04-09T00:07:43.253Z,50.67
2023-04-09T00:10:11.316Z,52.67
2023-04-09T00:12:38.109Z,42.63
2023-04-09T00:15:05.346Z,45.20
2023-04-09T00:17:32.170Z,45.55
2023-04-09T00:19:59.012Z,48.13
2023-04-09T00:22:25.776Z,46.22
2023-04-09T00:24:52.552Z,46.05
2023-04-09T00:27:19.485Z,46.42
2023-04-09T00:29:47.465Z,42.22
2023-04-09T00:32:14.341Z,43.53
2023-04-09T00:34:41.342Z,41.08
2023-04-09T00:37:08.179Z,46.78
2023-04-09T00:39:34.950Z,42.88
2023-04-09T00:42:04.665Z,43.00
2023-04-09T00:44:31.513Z,42.78
2023-04-09T00:46:59.211Z,44.63
2023-04-09T00:49:26.581Z,43.83
2023-04-09T00:51:53.972Z,50.42
2023-04-09T00:54:20.853Z,45.72
2023-04-09T00:56:48.066Z,48.70
2023-04-09T00:59:15.834Z,47.45
2023-04-09T01:01:42.657Z,46.03
2023-04-09T01:04:09.774Z,44.92
2023-04-09T01:06:36.647Z,43.38
2023-04-09T01:09:10.268Z,43.85
2023-04-09T01:12:11.593Z,44.70
2023-04-09T01:15:02.944Z,45.10
2023-04-09T01:17:49.306Z,41.50
2023-04-09T01:20:28.612Z,41.30
2023-04-09T01:23:16.205Z,45.75
2023-04-09T01:26:10.819Z,42.83
2023-04-09T01:28:43.371Z,42.42
2023-04-09T01:31:14.060Z,40.65
2023-04-09T01:33:42.291Z,38.40
2023-04-09T01:36:10.314Z,39.47
2023-04-09T01:38:40.449Z,38.97
2023-04-09T01:41:08.941Z,42.80
2023-04-09T01:43:36.935Z,38.60
2023-04-09T01:46:04.704Z,42.58
2023-04-09T01:48:32.865Z,40.00
2023-04-09T01:50:59.896Z,40.28
2023-04-09T01:53:31.155Z,38.25
2023-04-09T01:56:01.896Z,42.45
2023-04-09T01:58:28.811Z,39.80
2023-04-09T02:01:22.743Z,44.08
2023-04-09T02:03:57.406Z,39.45
2023-04-09T02:06:44.384Z,42.53
2023-04-09T02:09:12.648Z,44.33
2023-04-09T02:11:42.249Z,41.25
2023-04-09T02:14:11.266Z,42.67
2023-04-09T02:16:39.386Z,42.25
2023-04-09T02:19:06.359Z,40.20
2023-04-09T02:21:33.197Z,42.88
2023-04-09T02:23:59.986Z,44.40
2023-04-09T02:26:26.778Z,42.28
2023-04-09T02:28:53.912Z,40.85
2023-04-09T02:31:21.064Z,40.67
2023-04-09T02:33:47.897Z,42.63
2023-04-09T02:36:14.762Z,41.10
2023-04-09T02:38:42.593Z,40.47
2023-04-09T02:41:09.669Z,44.38
2023-04-09T02:43:36.867Z,39.13
2023-04-09T02:46:04.170Z,37.25
2023-04-09T02:48:31.352Z,39.25
2023-04-09T02:50:58.091Z,43.00
2023-04-09T02:53:25.456Z,41.63
2023-04-09T02:55:52.318Z,40.20
2023-04-09T02:58:19.078Z,41.80
2023-04-09T03:00:46.044Z,39.75
2023-04-09T03:03:13.131Z,39.00
2023-04-09T03:05:40.024Z,46.92
2023-04-09T03:08:06.869Z,39.55
2023-04-09T03:10:33.727Z,42.88
2023-04-09T03:13:00.470Z,42.55
2023-04-09T03:15:27.290Z,38.45
2023-04-09T03:17:54.101Z,39.83
2023-04-09T03:20:20.886Z,42.50
2023-04-09T03:22:47.612Z,38.85
2023-04-09T03:25:14.423Z,38.58
2023-04-09T03:27:41.180Z,41.70
2023-04-09T03:30:08.477Z,43.58
2023-04-09T03:32:35.233Z,39.55
2023-04-09T03:35:02.042Z,39.97
2023-04-09T03:37:28.976Z,40.92
2023-04-09T03:39:55.829Z,41.00
2023-04-09T03:42:22.618Z,39.08
2023-04-09T03:44:49.396Z,42.80
2023-04-09T03:47:16.181Z,43.15
2023-04-09T03:49:42.982Z,42.25
2023-04-09T03:52:09.762Z,45.30
2023-04-09T03:54:36.599Z,39.75
2023-04-09T03:57:04.568Z,42.80
2023-04-09T03:59:31.314Z,46.03
2023-04-09T04:01:58.132Z,48.10
2023-04-09T04:04:25.043Z,48.28
2023-04-09T04:06:51.871Z,45.75
2023-04-09T04:09:18.698Z,44.08
2023-04-09T04:11:45.451Z,46.50
2023-04-09T04:14:12.225Z,46.75
2023-04-09T04:16:41.196Z,51.90
2023-04-09T04:19:08.067Z,50.72
2023-04-09T04:21:34.904Z,48.97
2023-04-09T04:24:01.731Z,47.42
2023-04-09T04:26:28.504Z,49.45
2023-04-09T04:28:55.396Z,45.42
2023-04-09T04:31:22.198Z,44.72
2023-04-09T04:33:49.138Z,44.80
2023-04-09T04:36:15.984Z,46.30
2023-04-09T04:38:42.926Z,47.45
2023-04-09T04:41:11.644Z,47.08
2023-04-09T04:43:38.497Z,53.13
2023-04-09T04:46:06.277Z,48.53
2023-04-09T04:48:33.161Z,51.95
2023-04-09T04:51:01.344Z,46.60
2023-04-09T04:53:28.375Z,43.25
2023-04-09T04:55:55.263Z,44.90
2023-04-09T04:58:22.068Z,45.85
2023-04-09T05:00:48.999Z,43.30
2023-04-09T05:03:16.206Z,44.83
2023-04-09T05:05:43.431Z,41.85
2023-04-09T05:08:10.444Z,45.53
2023-04-09T05:10:37.315Z,39.38
2023-04-09T05:13:04.228Z,39.97
2023-04-09T05:15:31.025Z,38.55
2023-04-09T05:17:58.336Z,37.22
2023-04-09T05:20:27.290Z,35.70
2023-04-09T05:22:54.041Z,35.78
2023-04-09T05:25:21.013Z,33.38
2023-04-09T05:27:47.790Z,35.35
2023-04-09T05:30:14.584Z,33.95
2023-04-09T05:32:41.470Z,34.03
2023-04-09T05:35:08.804Z,42.92
2023-04-09T05:37:35.623Z,35.30
2023-04-09T05:40:02.655Z,32.17
2023-04-09T05:42:29.547Z,32.25
2023-04-09T05:44:56.517Z,30.40
2023-04-09T05:47:23.345Z,27.60
2023-04-09T05:49:50.133Z,28.05
2023-04-09T05:52:17.202Z,27.83
2023-04-09T05:54:44.088Z,27.13
2023-04-09T05:57:10.820Z,24.92
2023-04-09T05:59:37.699Z,29.80
2023-04-09T06:02:04.571Z,32.40
2023-04-09T06:04:31.910Z,28.92
2023-04-09T06:07:00.336Z,29.55
2023-04-09T06:09:29.981Z,31.35
2023-04-09T06:11:57.847Z,26.48
2023-04-09T06:14:24.741Z,26.27
2023-04-09T06:16:51.498Z,26.35
2023-04-09T06:19:18.733Z,29.13
2023-04-09T06:21:45.673Z,29.80
2023-04-09T06:24:12.731Z,30.92
2023-04-09T06:26:39.561Z,26.40
2023-04-09T06:29:06.407Z,29.30
2023-04-09T06:31:33.536Z,29.00
2023-04-09T06:34:00.640Z,28.05
2023-04-09T06:36:27.864Z,27.83
2023-04-09T06:38:54.834Z,27.00
2023-04-09T06:41:22.566Z,28.10
2023-04-09T06:43:49.917Z,27.52
2023-04-09T06:46:20.063Z,27.67
2023-04-09T06:48:47.375Z,31.55
2023-04-09T06:51:15.027Z,28.00
2023-04-09T06:53:42.377Z,25.52
2023-04-09T06:56:09.650Z,26.63
2023-04-09T06:58:36.804Z,26.55
2023-04-09T07:01:03.798Z,27.90
2023-04-09T07:03:31.180Z,34.38
2023-04-09T07:05:58.956Z,27.02
2023-04-09T07:08:26.050Z,30.23
2023-04-09T07:10:52.887Z,31.42
2023-04-09T07:13:19.823Z,31.15
2023-04-09T07:15:46.602Z,30.23
2023-04-09T07:18:13.432Z,29.70
2023-04-09T07:20:40.293Z,41.78
2023-04-09T07:23:07.120Z,33.20
2023-04-09T07:25:34.175Z,32.60
2023-04-09T07:28:01.679Z,32.15
2023-04-09T07:30:28.499Z,29.63
2023-04-09T07:32:55.388Z,31.58
2023-04-09T07:35:22.237Z,27.17
2023-04-09T07:37:49.081Z,31.17
2023-04-09T07:40:16.136Z,29.02
2023-04-09T07:42:42.912Z,28.25
2023-04-09T07:45:09.920Z,29.65
2023-04-09T07:47:38.520Z,29.48
2023-04-09T07:50:05.988Z,31.08
2023-04-09T07:52:32.885Z,29.48
2023-04-09T07:54:59.629Z,30.17
2023-04-09T07:57:26.513Z,28.83
2023-04-09T07:59:54.372Z,27.27
2023-04-09T08:02:21.423Z,35.42
2023-04-09T08:04:48.394Z,28.13
2023-04-09T08:07:15.248Z,28.42
2023-04-09T08:09:42.246Z,30.63
2023-04-09T08:12:09.061Z,29.55
2023-04-09T08:14:36.199Z,31.05
2023-04-09T08:17:03.097Z,28.33
2023-04-09T08:19:29.979Z,25.50
2023-04-09T08:21:56.925Z,26.63
2023-04-09T08:24:23.738Z,26.08
2023-04-09T08:26:50.561Z,25.38
2023-04-09T08:29:17.458Z,24.13
2023-04-09T08:31:44.625Z,23.80
2023-04-09T08:34:11.510Z,24.67
2023-04-09T08:36:38.400Z,25.27
2023-04-09T08:39:05.169Z,22.65
2023-04-09T08:41:32.054Z,25.38
2023-04-09T08:43:59.889Z,22.88
2023-04-09T08:46:27.779Z,23.63
2023-04-09T08:48:55.607Z,22.40
2023-04-09T08:51:24.194Z,24.77
2023-04-09T08:54:00.762Z,25.85
2023-04-09T08:56:30.502Z,24.30
2023-04-09T08:58:57.564Z,24.05
2023-04-09T09:01:29.768Z,32.33
2023-04-09T09:04:06.153Z,26.38
2023-04-09T09:06:35.630Z,24.13
2023-04-09T09:09:06.876Z,31.40
2023-04-09T09:11:37.749Z,28.33
2023-04-09T09:14:07.312Z,31.92
2023-04-09T09:16:36.313Z,23.35
2023-04-09T09:19:03.269Z,26.15
2023-04-09T09:21:30.226Z,26.92
2023-04-09T09:23:57.708Z,25.23
2023-04-09T09:26:27.508Z,24.10
2023-04-09T09:28:55.342Z,24.23
2023-04-09T09:31:23.535Z,22.40
2023-04-09T09:33:51.601Z,16.90
2023-04-09T09:36:35.110Z,18.17
2023-04-09T09:39:10.335Z,17.52
2023-04-09T09:41:38.124Z,24.50
2023-04-09T09:44:07.246Z,23.45
2023-04-09T09:46:36.242Z,20.10
2023-04-09T09:49:03.152Z,16.25
2023-04-09T09:51:32.511Z,13.98
2023-04-09T09:54:00.330Z,15.20
2023-04-09T09:56:34.785Z,14.50
2023-04-09T09:59:23.515Z,14.43
2023-04-09T10:02:14.652Z,12.73
2023-04-09T10:04:41.796Z,11.63
2023-04-09T10:07:09.309Z,13.65
2023-04-09T10:09:38.321Z,9.25
2023-04-09T10:12:09.090Z,9.18
2023-04-09T10:14:36.430Z,10.25
2023-04-09T10:17:04.320Z,10.63
2023-04-09T10:19:41.219Z,9.68
2023-04-09T10:22:13.314Z,10.80
2023-04-09T10:24:41.260Z,12.77
2023-04-09T10:27:13.675Z,15.45
2023-04-09T10:29:51.808Z,11.07
2023-04-09T10:32:26.488Z,10.45
2023-04-09T10:34:57.554Z,12.45
2023-04-09T10:37:28.643Z,13.30
2023-04-09T10:39:56.595Z,16.30
2023-04-09T10:42:36.655Z,11.23
2023-04-09T10:45:09.088Z,13.82
2023-04-09T10:47:37.751Z,12.07
2023-04-09T10:50:24.115Z,13.95
2023-04-09T10:53:00.251Z,14.05
2023-04-09T10:55:38.731Z,11.60
2023-04-09T10:58:09.058Z,14.10
2023-04-09T11:03:40.326Z,13.57
2023-04-09T11:06:10.595Z,15.30
2023-04-09T11:08:38.682Z,14.93
2023-04-09T11:11:06.018Z,13.02
2023-04-09T11:13:34.277Z,15.18
2023-04-09T11:16:03.392Z,10.63
2023-04-09T11:18:31.343Z,10.73
2023-04-09T11:21:03.189Z,11.43
2023-04-09T11:25:56.822Z,11.00
2023-04-09T11:28:24.410Z,10.50
2023-04-09T11:30:52.025Z,11.45
2023-04-09T11:33:20.216Z,12.73
2023-04-09T11:35:47.624Z,12.30
2023-04-09T11:38:14.534Z,11.48
2023-04-09T11:40:49.934Z,11.40
2023-04-09T11:43:18.003Z,10.73
2023-04-09T11:45:47.143Z,11.93
2023-04-09T11:48:15.061Z,11.95
2023-04-09T11:50:42.070Z,10.13
2023-04-09T11:53:19.631Z,9.85
2023-04-09T11:55:50.727Z,11.05
2023-04-09T11:58:17.741Z,11.43
2023-04-09T12:00:45.419Z,11.25
2023-04-09T12:03:12.508Z,12.13
2023-04-09T12:05:42.091Z,11.45
2023-04-09T12:08:10.880Z,11.50
2023-04-09T12:10:38.575Z,9.50
2023-04-09T12:13:10.477Z,9.80
2023-04-09T12:15:41.031Z,9.43
2023-04-09T12:18:12.946Z,8.50
2023-04-09T12:23:08.441Z,7.53
2023-04-09T12:25:37.901Z,8.40
2023-04-09T12:28:06.158Z,10.48
2023-04-09T12:30:34.253Z,10.77
2023-04-09T12:33:03.110Z,7.85
2023-04-09T12:35:30.109Z,7.78
2023-04-09T12:37:57.038Z,11.55
2023-04-09T12:40:23.833Z,8.43
2023-04-09T12:42:50.800Z,12.02
2023-04-09T12:45:19.076Z,7.75
2023-04-09T12:47:46.697Z,7.10
2023-04-09T12:50:17.647Z,7.28
2023-04-09T12:52:46.351Z,6.97
2023-04-09T12:55:14.396Z,6.72
2023-04-09T12:57:44.772Z,7.18
2023-04-09T13:00:12.259Z,6.50
2023-04-09T13:02:39.465Z,7.68
2023-04-09T13:05:06.670Z,8.27
2023-04-09T13:07:33.644Z,7.22
2023-04-09T13:10:00.411Z,7.90
2023-04-09T13:12:27.541Z,7.78
2023-04-09T13:14:54.935Z,7.10
2023-04-09T13:17:22.321Z,8.77
2023-04-09T13:19:50.350Z,6.25
2023-04-09T13:22:17.685Z,5.53
2023-04-09T13:24:44.425Z,6.72
2023-04-09T13:27:11.416Z,6.43
2023-04-09T13:29:38.773Z,6.22
2023-04-09T13:32:10.924Z,4.28
2023-04-09T13:34:39.416Z,4.93
2023-04-09T13:37:06.684Z,3.85
2023-04-09T13:39:33.601Z,2.40
2023-04-09T13:42:03.669Z,2.42
2023-04-09T13:44:35.208Z,2.63
2023-04-09T13:47:02.080Z,3.08
2023-04-09T13:49:30.372Z,5.05
2023-04-09T13:51:57.717Z,3.92
2023-04-09T13:54:24.453Z,2.00
2023-04-09T13:56:51.647Z,3.42
2023-04-09T13:59:18.579Z,2.78
2023-04-09T14:01:45.494Z,2.08
2023-04-09T14:04:12.577Z,2.45
2023-04-09T14:06:39.443Z,4.78
2023-04-09T14:09:06.384Z,3.10
2023-04-09T14:11:33.200Z,2.75
2023-04-09T14:13:59.961Z,3.08
2023-04-09T14:16:28.151Z,4.30
2023-04-09T14:18:55.316Z,9.45
2023-04-09T14:21:22.651Z,16.65
2023-04-09T14:23:49.456Z,8.80
2023-04-09T14:26:16.664Z,5.93
2023-04-09T14:28:44.463Z,5.40
2023-04-09T14:31:11.384Z,6.97
2023-04-09T14:33:38.195Z,5.93
2023-04-09T14:36:05.201Z,8.15
2023-04-09T14:38:32.610Z,23.08
2023-04-09T14:40:59.387Z,11.13
2023-04-09T14:43:26.302Z,9.65
2023-04-09T14:45:54.401Z,9.55
2023-04-09T14:48:21.248Z,8.90
2023-04-09T14:50:48.445Z,8.25
2023-04-09T14:53:15.262Z,12.65
2023-04-09T14:55:42.001Z,12.20
2023-04-09T14:58:08.983Z,10.30
2023-04-09T15:00:36.177Z,9.95
2023-04-09T15:03:03.985Z,12.35
2023-04-09T15:05:31.140Z,13.82
2023-04-09T15:07:57.960Z,9.20
2023-04-09T15:10:25.017Z,9.40
2023-04-09T15:12:51.832Z,12.68
2023-04-09T15:15:18.598Z,10.85
2023-04-09T15:17:45.400Z,14.48
2023-04-09T15:20:13.942Z,12.32
2023-04-09T15:22:40.882Z,12.13
2023-04-09T15:25:07.900Z,14.10
2023-04-09T15:27:34.876Z,13.07
2023-04-09T15:30:02.104Z,17.48
2023-04-09T15:32:29.955Z,12.75
2023-04-09T15:34:57.121Z,14.52
2023-04-09T15:37:23.936Z,13.52
2023-04-09T15:39:50.729Z,12.50
2023-04-09T15:42:22.438Z,11.93
2023-04-09T15:44:50.423Z,12.23
2023-04-09T15:47:17.637Z,15.30
2023-04-09T15:49:44.564Z,13.90
2023-04-09T15:52:11.386Z,21.02
2023-04-09T15:54:38.222Z,21.83
2023-04-09T15:57:05.201Z,15.55
2023-04-09T15:59:32.022Z,13.60
2023-04-09T16:01:59.092Z,15.57
2023-04-09T16:04:27.038Z,12.85
2023-04-09T16:06:55.451Z,15.30
2023-04-09T16:09:22.970Z,14.95
2023-04-09T16:11:51.041Z,22.75
2023-04-09T16:14:17.949Z,17.58
2023-04-09T16:16:49.588Z,20.40
2023-04-09T16:19:20.437Z,12.20
2023-04-09T16:21:47.559Z,13.10
2023-04-09T16:24:14.825Z,13.30
2023-04-09T16:26:43.521Z,12.45
2023-04-09T16:29:10.500Z,14.95
2023-04-09T16:31:38.248Z,12.75
2023-04-09T16:34:05.570Z,13.25
2023-04-09T16:36:33.595Z,13.35
2023-04-09T16:39:00.396Z,12.52
2023-04-09T16:41:27.210Z,11.57
2023-04-09T16:43:54.188Z,11.85
2023-04-09T16:46:21.128Z,11.30
2023-04-09T16:48:48.064Z,14.18
2023-04-09T16:51:14.996Z,13.02
2023-04-09T16:53:41.801Z,14.32
2023-04-09T16:56:08.851Z,12.02
2023-04-09T16:58:35.658Z,10.95
2023-04-09T17:01:02.571Z,9.80
2023-04-09T17:03:29.540Z,12.05
2023-04-09T17:05:57.260Z,10.93
2023-04-09T17:08:26.893Z,12.32
2023-04-09T17:11:01.758Z,12.65
2023-04-09T17:13:31.630Z,12.55
2023-04-09T17:15:58.576Z,12.90
2023-04-09T17:18:25.477Z,11.32
2023-04-09T17:20:52.332Z,12.23
2023-04-09T17:23:19.385Z,15.38
2023-04-09T17:25:47.141Z,12.80
2023-04-09T17:28:13.966Z,13.70
2023-04-09T17:30:41.485Z,14.13
2023-04-09T17:33:08.658Z,16.50
2023-04-09T17:35:35.516Z,11.90
2023-04-09T17:38:02.464Z,12.07
2023-04-09T17:40:29.430Z,11.77
2023-04-09T17:42:56.243Z,11.23
2023-04-09T17:45:23.049Z,10.60
2023-04-09T17:47:51.152Z,17.48
2023-04-09T17:50:18.355Z,19.08
2023-04-09T17:52:45.204Z,15.95
2023-04-09T17:55:13.022Z,14.80
2023-04-09T17:57:40.917Z,16.00
2023-04-09T18:00:08.294Z,13.80
2023-04-09T18:02:35.903Z,10.85
2023-04-09T18:05:04.805Z,12.35
2023-04-09T18:07:34.028Z,16.38
2023-04-09T18:10:02.681Z,17.85
2023-04-09T18:12:29.871Z,14.68
2023-04-09T18:14:56.851Z,14.23
2023-04-09T18:17:23.812Z,11.25
2023-04-09T18:19:53.454Z,12.30
2023-04-09T18:22:20.291Z,14.15
2023-04-09T18:24:47.107Z,13.60
2023-04-09T18:27:13.897Z,14.30
2023-04-09T18:29:40.660Z,13.60
2023-04-09T18:32:07.662Z,12.93
2023-04-09T18:34:34.524Z,14.85
2023-04-09T18:37:01.431Z,14.40
2023-04-09T18:39:28.313Z,13.02
2023-04-09T18:41:55.282Z,15.27
2023-04-09T18:44:22.177Z,15.48
2023-04-09T18:46:48.986Z,15.23
2023-04-09T18:49:15.902Z,16.95
2023-04-09T18:51:42.659Z,13.00
2023-04-09T18:54:09.426Z,14.52
2023-04-09T18:56:36.586Z,13.13
2023-04-09T18:59:03.438Z,13.63
2023-04-09T19:01:30.330Z,14.73
2023-04-09T19:03:57.181Z,12.07
2023-04-09T19:06:25.582Z,12.07
2023-04-09T19:08:57.927Z,10.27
2023-04-09T19:11:26.182Z,10.55
2023-04-09T19:13:52.988Z,10.02
2023-04-09T19:16:23.239Z,12.20
2023-04-09T19:18:50.093Z,11.23
2023-04-09T19:21:17.891Z,10.82
2023-04-09T19:23:45.624Z,9.23
2023-04-09T19:26:12.463Z,11.73
2023-04-09T19:28:39.230Z,11.60
2023-04-09T19:31:06.666Z,9.30
2023-04-09T19:33:33.493Z,10.77
2023-04-09T19:36:00.531Z,10.23
2023-04-09T19:38:27.421Z,10.75
2023-04-09T19:40:54.255Z,11.05
2023-04-09T19:43:21.046Z,12.00
2023-04-09T19:45:47.909Z,12.00
2023-04-09T19:48:14.684Z,10.82
2023-04-09T19:50:43.079Z,11.82
2023-04-09T19:53:10.886Z,11.18
2023-04-09T19:55:37.940Z,18.08
2023-04-09T19:58:05.480Z,10.88
2023-04-09T20:00:35.983Z,11.80
2023-04-09T20:03:03.334Z,11.15
2023-04-09T20:05:30.306Z,11.32
2023-04-09T20:07:57.110Z,11.15
2023-04-09T20:10:23.902Z,12.80
2023-04-09T20:12:51.288Z,16.92
2023-04-09T20:15:20.233Z,12.85
2023-04-09T20:17:51.085Z,13.85
2023-04-09T20:20:19.884Z,13.87
2023-04-09T20:22:55.646Z,13.57
2023-04-09T20:25:23.314Z,13.70
2023-04-09T20:27:52.396Z,12.73
2023-04-09T20:30:19.197Z,11.80
2023-04-09T20:32:46.084Z,10.73
2023-04-09T20:35:14.225Z,11.38
2023-04-09T20:37:41.191Z,10.45
2023-04-09T20:40:08.434Z,12.70
2023-04-09T20:42:35.583Z,12.38
2023-04-09T20:45:03.035Z,13.52
2023-04-09T20:47:29.901Z,10.50
2023-04-09T20:49:59.831Z,10.25
2023-04-09T20:52:29.945Z,9.50
2023-04-09T20:54:57.714Z,10.43
2023-04-09T20:57:24.534Z,7.90
2023-04-09T20:59:52.934Z,9.00
2023-04-09T21:02:20.018Z,9.18
2023-04-09T21:04:47.102Z,8.98
2023-04-09T21:07:14.362Z,8.15
2023-04-09T21:09:41.224Z,11.80
2023-04-09T21:12:07.971Z,9.90
2023-04-09T21:14:34.783Z,9.43
2023-04-09T21:17:01.622Z,12.13
2023-04-09T21:19:28.518Z,12.35
2023-04-09T21:21:55.475Z,11.73
2023-04-09T21:24:23.109Z,15.38
2023-04-09T21:26:52.130Z,11.85
2023-04-09T21:29:22.284Z,13.25
2023-04-09T21:31:49.596Z,11.13
2023-04-09T21:34:16.483Z,12.68
2023-04-09T21:36:45.419Z,12.82
2023-04-09T21:39:12.667Z,11.85
2023-04-09T21:41:39.640Z,13.65
2023-04-09T21:44:08.724Z,10.98
2023-04-09T21:46:40.583Z,13.85
2023-04-09T21:49:08.147Z,15.05
2023-04-09T21:51:34.993Z,13.73
2023-04-09T21:54:05.569Z,15.50
2023-04-09T21:56:34.015Z,15.57
2023-04-09T21:59:01.367Z,15.48
2023-04-09T22:01:30.658Z,15.38
2023-04-09T22:04:01.976Z,14.07
2023-04-09T22:06:29.350Z,14.40
2023-04-09T22:08:57.976Z,12.50
2023-04-09T22:11:27.882Z,15.73
2023-04-09T22:13:56.616Z,14.95
2023-04-09T22:16:24.326Z,11.18
2023-04-09T22:18:51.630Z,11.93
2023-04-09T22:21:18.673Z,13.38
2023-04-09T22:23:45.509Z,12.57
2023-04-09T22:26:12.305Z,14.65
2023-04-09T22:28:39.412Z,16.42
2023-04-09T22:31:06.552Z,13.07
2023-04-09T22:33:33.414Z,15.05
2023-04-09T22:36:00.435Z,14.80
2023-04-09T22:38:27.367Z,13.32
2023-04-09T22:40:54.917Z,15.70
2023-04-09T22:43:22.608Z,13.85
2023-04-09T22:45:56.106Z,13.80
2023-04-09T22:48:23.417Z,11.43
2023-04-09T22:50:51.159Z,13.98
2023-04-09T22:53:21.782Z,14.65
2023-04-09T22:55:54.434Z,12.35
2023-04-09T22:58:21.496Z,16.13
2023-04-09T23:00:49.675Z,12.10
2023-04-09T23:03:17.362Z,13.18
2023-04-09T23:05:44.288Z,13.93
2023-04-09T23:08:11.449Z,11.00
2023-04-09T23:10:38.310Z,19.42
2023-04-09T23:13:05.317Z,12.18
2023-04-09T23:15:32.090Z,10.45
2023-04-09T23:17:58.914Z,11.43
2023-04-09T23:20:26.578Z,11.52
2023-04-09T23:22:53.376Z,9.07
2023-04-09T23:25:21.922Z,11.70
2023-04-09T23:27:48.920Z,14.27
2023-04-09T23:30:18.389Z,15.07
2023-04-09T23:32:45.814Z,13.75
2023-04-09T23:35:13.012Z,13.80
2023-04-09T23:37:40.744Z,12.52
2023-04-09T23:40:10.067Z,14.27
2023-04-09T23:42:37.085Z,12.65
2023-04-09T23:45:05.802Z,11.60
2023-04-09T23:47:34.323Z,12.02
2023-04-09T23:50:04.901Z,12.05
2023-04-09T23:52:35.989Z,12.40
2023-04-09T23:55:03.804Z,11.43
2023-04-09T23:57:30.628Z,12.38
2023-04-09T23:59:57.563Z,13.05
